createdAt,value
2023-04-29T00:00:33.557Z,1.20
2023-04-29T00:03:01.783Z,1.30
2023-04-29T00:05:28.369Z,1.45
2023-04-29T00:07:54.957Z,1.20
2023-04-29T00:10:21.286Z,1.33
2023-04-29T00:12:48.783Z,1.20
2023-04-29T00:15:15.322Z,1.30
2023-04-29T00:17:41.762Z,1.80
2023-04-29T00:20:08.523Z,1.77
2023-04-29T00:22:35.032Z,2.75
2023-04-29T00:25:01.362Z,1.50
2023-04-29T00:27:27.801Z,1.80
2023-04-29T00:29:54.586Z,2.15
2023-04-29T00:32:21.120Z,1.63
2023-04-29T00:34:48.466Z,2.70
2023-04-29T00:37:15.204Z,1.40
2023-04-29T00:39:41.649Z,1.55
2023-04-29T00:42:08.388Z,1.35
2023-04-29T00:44:34.917Z,1.40
2023-04-29T00:47:01.272Z,1.80
2023-04-29T00:49:27.864Z,1.90
2023-04-29T00:51:56.069Z,1.98
2023-04-29T00:54:22.400Z,1.50
2023-04-29T00:56:49.250Z,2.13
2023-04-29T00:59:17.098Z,2.30
2023-04-29T01:01:44.739Z,2.55
2023-04-29T01:04:11.497Z,2.53
2023-04-29T01:06:48.039Z,2.33
2023-04-29T01:09:33.364Z,2.05
2023-04-29T01:12:13.485Z,2.70
2023-04-29T01:14:43.551Z,2.50
2023-04-29T01:17:11.041Z,4.85
2023-04-29T01:19:46.827Z,5.38
2023-04-29T01:22:14.604Z,5.18
2023-04-29T01:24:41.093Z,3.53
2023-04-29T01:27:14.279Z,3.95
2023-04-29T01:29:47.109Z,4.35
2023-04-29T01:32:16.324Z,3.97
2023-04-29T01:34:47.843Z,4.75
2023-04-29T01:37:19.527Z,3.45
2023-04-29T01:40:05.782Z,4.63
2023-04-29T01:42:51.611Z,3.85
2023-04-29T01:45:18.518Z,5.45
2023-04-29T01:47:46.571Z,4.60
2023-04-29T01:50:13.052Z,6.00
2023-04-29T01:52:39.659Z,4.00
2023-04-29T01:55:06.336Z,3.30
2023-04-29T01:57:33.150Z,3.65
2023-04-29T01:59:59.752Z,3.10
2023-04-29T02:02:26.558Z,2.45
2023-04-29T02:04:53.023Z,3.67
2023-04-29T02:07:19.358Z,3.00
2023-04-29T02:09:45.769Z,3.90
2023-04-29T02:12:12.175Z,2.45
2023-04-29T02:14:38.631Z,4.35
2023-04-29T02:17:05.095Z,2.47
2023-04-29T02:19:31.466Z,3.60
2023-04-29T02:21:57.836Z,2.83
2023-04-29T02:24:24.179Z,3.17
2023-04-29T02:26:50.594Z,4.47
2023-04-29T02:29:17.383Z,2.97
2023-04-29T02:31:43.779Z,4.43
2023-04-29T02:34:10.277Z,3.75
2023-04-29T02:36:36.646Z,6.28
2023-04-29T02:39:02.993Z,7.03
2023-04-29T02:41:29.357Z,5.07
2023-04-29T02:43:55.751Z,5.88
2023-04-29T02:46:22.176Z,7.80
2023-04-29T02:48:48.524Z,7.20
2023-04-29T02:51:15.444Z,10.77
2023-04-29T02:53:41.775Z,10.25
2023-04-29T02:56:08.060Z,6.05
2023-04-29T02:58:34.368Z,5.55
2023-04-29T03:01:00.702Z,5.22
2023-04-29T03:03:27.349Z,10.02
2023-04-29T03:05:53.784Z,7.65
2023-04-29T03:08:20.092Z,7.05
2023-04-29T03:10:46.710Z,5.53
2023-04-29T03:13:13.179Z,6.30
2023-04-29T03:15:39.552Z,5.13
2023-04-29T03:18:05.993Z,7.45
2023-04-29T03:20:32.707Z,5.40
2023-04-29T03:22:59.912Z,7.50
2023-04-29T03:25:26.418Z,5.25
2023-04-29T03:27:52.696Z,4.75
2023-04-29T03:30:18.990Z,7.60
2023-04-29T03:32:45.519Z,8.25
2023-04-29T03:35:15.572Z,7.30
2023-04-29T03:37:44.424Z,6.30
2023-04-29T03:40:12.042Z,4.28
2023-04-29T03:42:38.441Z,4.25
2023-04-29T03:45:05.187Z,5.07
2023-04-29T03:47:31.724Z,8.50
2023-04-29T03:49:58.116Z,6.00
2023-04-29T03:52:24.547Z,5.63
2023-04-29T03:54:51.163Z,3.88
2023-04-29T03:57:17.510Z,3.50
2023-04-29T03:59:43.945Z,2.95
2023-04-29T04:02:10.519Z,3.85
2023-04-29T04:04:37.096Z,3.97
2023-04-29T04:07:03.906Z,2.92
2023-04-29T04:09:30.344Z,2.45
2023-04-29T04:11:56.750Z,2.70
2023-04-29T04:14:23.252Z,2.30
2023-04-29T04:16:50.690Z,5.22
2023-04-29T04:19:17.328Z,4.88
2023-04-29T04:21:43.704Z,4.47
2023-04-29T04:24:10.158Z,3.47
2023-04-29T04:26:36.768Z,4.68
2023-04-29T04:29:04.969Z,4.00
2023-04-29T04:31:31.442Z,4.55
2023-04-29T04:33:59.793Z,5.85
2023-04-29T04:36:26.581Z,3.65
2023-04-29T04:38:52.930Z,3.88
2023-04-29T04:41:19.243Z,5.00
2023-04-29T04:43:45.620Z,3.90
2023-04-29T04:46:16.098Z,5.07
2023-04-29T04:48:43.053Z,4.65
2023-04-29T04:51:12.997Z,4.03
2023-04-29T04:53:39.899Z,5.47
2023-04-29T04:56:06.861Z,6.05
2023-04-29T04:58:33.600Z,5.80
2023-04-29T05:01:00.613Z,4.82
2023-04-29T05:03:27.182Z,4.43
2023-04-29T05:05:57.280Z,3.15
2023-04-29T05:08:23.750Z,3.65
2023-04-29T05:10:50.236Z,5.57
2023-04-29T05:13:16.548Z,5.85
2023-04-29T05:15:43.087Z,4.90
2023-04-29T05:18:09.470Z,3.85
2023-04-29T05:20:36.037Z,5.28
2023-04-29T05:23:02.830Z,5.53
2023-04-29T05:25:29.502Z,3.38
2023-04-29T05:27:55.975Z,3.92
2023-04-29T05:30:22.336Z,5.00
2023-04-29T05:32:51.650Z,3.53
2023-04-29T05:35:18.083Z,2.30
2023-04-29T05:37:44.420Z,2.88
2023-04-29T05:40:11.120Z,2.58
2023-04-29T05:42:37.559Z,3.70
2023-04-29T05:45:04.003Z,3.55
2023-04-29T05:47:30.390Z,3.63
2023-04-29T05:49:57.199Z,2.70
2023-04-29T05:52:23.569Z,4.22
2023-04-29T05:54:50.484Z,2.35
2023-04-29T05:57:16.785Z,2.55
2023-04-29T05:59:43.292Z,2.95
2023-04-29T06:02:11.026Z,2.65
2023-04-29T06:04:37.820Z,2.15
2023-04-29T06:07:05.176Z,2.25
2023-04-29T06:09:31.769Z,2.45
2023-04-29T06:11:58.198Z,3.63
2023-04-29T06:14:24.624Z,2.45
2023-04-29T06:16:51.085Z,2.97
2023-04-29T06:19:17.517Z,2.83
2023-04-29T06:21:43.860Z,2.67
2023-04-29T06:24:10.466Z,3.95
2023-04-29T06:26:37.309Z,3.10
2023-04-29T06:29:03.855Z,3.03
2023-04-29T06:31:30.190Z,3.15
2023-04-29T06:33:56.557Z,3.00
2023-04-29T06:36:22.948Z,3.33
2023-04-29T06:38:49.296Z,3.15
2023-04-29T06:41:15.855Z,3.42
2023-04-29T06:43:43.334Z,4.20
2023-04-29T06:46:10.090Z,4.45
2023-04-29T06:48:36.852Z,4.13
2023-04-29T06:51:03.824Z,3.97
2023-04-29T06:53:30.319Z,2.97
2023-04-29T06:55:56.658Z,2.95
2023-04-29T06:58:23.063Z,3.47
2023-04-29T07:00:50.732Z,4.00
2023-04-29T07:03:18.711Z,5.68
2023-04-29T07:05:46.049Z,5.13
2023-04-29T07:08:13.363Z,6.93
2023-04-29T07:10:40.145Z,7.47
2023-04-29T07:13:06.556Z,6.63
2023-04-29T07:15:36.257Z,7.38
2023-04-29T07:18:06.236Z,7.00
2023-04-29T07:20:32.637Z,7.72
2023-04-29T07:22:59.293Z,7.38
2023-04-29T07:25:26.742Z,8.00
2023-04-29T07:27:53.155Z,9.05
2023-04-29T07:30:19.668Z,7.03
2023-04-29T07:32:46.273Z,9.57
2023-04-29T07:35:12.686Z,8.88
2023-04-29T07:37:39.196Z,6.45
2023-04-29T07:40:06.026Z,6.43
2023-04-29T07:42:32.391Z,7.72
2023-04-29T07:44:58.879Z,10.05
2023-04-29T07:47:25.356Z,9.20
2023-04-29T07:49:52.684Z,7.18
2023-04-29T07:52:19.170Z,5.90
2023-04-29T07:54:45.511Z,6.90
2023-04-29T07:57:11.921Z,6.13
2023-04-29T07:59:38.384Z,4.63
2023-04-29T08:02:04.975Z,5.15
2023-04-29T08:04:31.568Z,4.30
2023-04-29T08:06:58.383Z,4.88
2023-04-29T08:09:24.877Z,5.57
2023-04-29T08:11:51.222Z,3.78
2023-04-29T08:14:17.682Z,3.70
2023-04-29T08:16:44.401Z,4.75
2023-04-29T08:19:11.464Z,6.20
2023-04-29T08:21:38.056Z,4.78
2023-04-29T08:24:05.734Z,4.60
2023-04-29T08:26:32.129Z,4.60
2023-04-29T08:28:58.477Z,3.92
2023-04-29T08:31:26.051Z,3.97
2023-04-29T08:33:52.404Z,3.35
2023-04-29T08:36:18.698Z,2.63
2023-04-29T08:38:45.146Z,3.97
2023-04-29T08:41:11.887Z,2.70
2023-04-29T08:43:40.857Z,3.40
2023-04-29T08:46:07.920Z,3.30
2023-04-29T08:48:36.163Z,3.97
2023-04-29T08:51:02.930Z,3.90
2023-04-29T08:53:29.307Z,3.72
2023-04-29T08:55:57.041Z,3.53
2023-04-29T08:58:25.327Z,3.63
2023-04-29T09:00:52.395Z,2.53
2023-04-29T09:03:34.289Z,2.83
2023-04-29T09:06:01.819Z,4.30
2023-04-29T09:08:28.669Z,4.25
2023-04-29T09:10:55.769Z,3.90
2023-04-29T09:13:25.406Z,4.75
2023-04-29T09:15:51.849Z,2.50
2023-04-29T09:18:36.826Z,2.08
2023-04-29T09:21:32.570Z,1.98
2023-04-29T09:24:00.066Z,1.52
2023-04-29T09:26:26.700Z,2.08
2023-04-29T09:29:16.148Z,2.78
2023-04-29T09:31:42.941Z,3.00
2023-04-29T09:34:09.913Z,4.53
2023-04-29T09:36:39.292Z,3.35
2023-04-29T09:39:10.632Z,4.30
2023-04-29T09:41:57.743Z,3.58
2023-04-29T09:44:25.022Z,2.05
2023-04-29T09:47:07.531Z,2.70
2023-04-29T09:49:40.791Z,2.20
2023-04-29T09:52:08.760Z,3.75
2023-04-29T09:54:39.077Z,3.20
2023-04-29T09:57:06.148Z,2.70
2023-04-29T09:59:36.058Z,2.95
2023-04-29T10:02:07.630Z,1.77
2023-04-29T10:04:35.209Z,2.08
2023-04-29T10:07:02.594Z,2.33
2023-04-29T10:09:29.458Z,1.80
2023-04-29T10:11:56.163Z,2.80
2023-04-29T10:14:23.424Z,3.10
2023-04-29T10:17:15.868Z,2.83
2023-04-29T10:19:53.904Z,3.00
2023-04-29T10:22:26.931Z,3.75
2023-04-29T10:24:54.858Z,2.33
2023-04-29T10:27:24.827Z,3.50
2023-04-29T10:29:52.877Z,2.75
2023-04-29T10:32:19.512Z,2.50
2023-04-29T10:34:45.963Z,3.53
2023-04-29T10:37:12.735Z,4.30
2023-04-29T10:39:42.273Z,2.40
2023-04-29T10:42:17.029Z,2.63
2023-04-29T10:45:03.649Z,2.80
2023-04-29T10:47:30.203Z,2.17
2023-04-29T10:50:04.401Z,4.45
2023-04-29T10:52:30.863Z,3.30
2023-04-29T10:55:02.308Z,2.50
2023-04-29T10:57:28.630Z,2.47
2023-04-29T10:59:55.069Z,2.00
2023-04-29T11:02:21.496Z,3.50
2023-04-29T11:05:06.578Z,3.40
2023-04-29T11:07:32.990Z,3.78
2023-04-29T11:09:59.367Z,3.25
2023-04-29T11:12:25.872Z,2.97
2023-04-29T11:14:52.692Z,2.40
2023-04-29T11:17:23.279Z,2.50
2023-04-29T11:19:53.387Z,2.70
2023-04-29T11:22:23.053Z,2.47
2023-04-29T11:25:09.112Z,2.80
2023-04-29T11:27:40.105Z,3.78
2023-04-29T11:30:07.564Z,3.20
2023-04-29T11:32:34.914Z,4.57
2023-04-29T11:35:17.707Z,4.20
2023-04-29T11:37:45.605Z,3.45
2023-04-29T11:40:13.356Z,4.93
2023-04-29T11:42:49.318Z,3.05
2023-04-29T11:45:19.309Z,3.60
2023-04-29T11:47:46.668Z,6.63
2023-04-29T11:50:15.764Z,5.70
2023-04-29T11:52:42.207Z,4.65
2023-04-29T11:55:09.360Z,4.97
2023-04-29T11:57:35.995Z,3.25
2023-04-29T12:00:02.984Z,2.97
2023-04-29T12:02:33.712Z,2.78
2023-04-29T12:05:03.905Z,3.70
2023-04-29T12:07:30.432Z,2.55
2023-04-29T12:09:57.856Z,3.83
2023-04-29T12:12:24.578Z,5.10
2023-04-29T12:14:51.170Z,6.68
2023-04-29T12:17:17.747Z,4.45
2023-04-29T12:19:44.214Z,5.53
2023-04-29T12:22:10.683Z,4.55
2023-04-29T12:24:37.810Z,6.20
2023-04-29T12:27:05.035Z,5.93
2023-04-29T12:29:31.685Z,6.88
2023-04-29T12:31:58.030Z,5.63
2023-04-29T12:34:31.452Z,5.68
2023-04-29T12:37:01.185Z,6.65
2023-04-29T12:39:28.149Z,8.70
2023-04-29T12:41:56.125Z,8.23
2023-04-29T12:44:23.054Z,11.70
2023-04-29T12:46:49.406Z,10.63
2023-04-29T12:49:18.536Z,9.77
2023-04-29T12:51:45.132Z,9.32
2023-04-29T12:54:11.657Z,8.85
2023-04-29T12:56:38.363Z,8.80
2023-04-29T12:59:06.298Z,10.30
2023-04-29T13:01:32.753Z,10.55
2023-04-29T13:03:59.378Z,9.68
2023-04-29T13:06:25.974Z,9.98
2023-04-29T13:08:52.493Z,12.18
2023-04-29T13:11:20.115Z,9.60
2023-04-29T13:13:46.799Z,8.82
2023-04-29T13:16:13.311Z,9.02
2023-04-29T13:18:39.772Z,9.95
2023-04-29T13:21:06.226Z,7.88
2023-04-29T13:23:32.579Z,5.82
2023-04-29T13:25:58.909Z,9.82
2023-04-29T13:28:25.339Z,11.93
2023-04-29T13:30:52.343Z,9.13
2023-04-29T13:33:19.571Z,11.55
2023-04-29T13:35:46.925Z,10.32
2023-04-29T13:38:13.409Z,9.38
2023-04-29T13:40:45.322Z,6.80
2023-04-29T13:43:15.388Z,8.65
2023-04-29T13:45:47.896Z,9.32
2023-04-29T13:48:32.480Z,8.30
2023-04-29T14:03:28.561Z,10.02
2023-04-29T14:05:56.153Z,9.93
2023-04-29T14:08:22.609Z,12.88
2023-04-29T14:10:49.031Z,12.10
2023-04-29T14:13:15.922Z,10.80
2023-04-29T14:15:42.422Z,9.55
2023-04-29T14:18:09.765Z,5.90
2023-04-29T14:20:36.388Z,6.75
2023-04-29T14:23:02.956Z,9.45
2023-04-29T14:25:30.028Z,12.00
2023-04-29T14:27:57.837Z,10.35
2023-04-29T14:30:24.643Z,14.85
2023-04-29T14:32:51.103Z,13.43
2023-04-29T14:35:17.526Z,13.93
2023-04-29T14:37:44.090Z,13.95
2023-04-29T14:40:10.761Z,10.10
2023-04-29T14:42:37.191Z,9.23
2023-04-29T14:45:03.889Z,7.60
2023-04-29T14:47:30.294Z,8.50
2023-04-29T14:49:56.752Z,6.55
2023-04-29T14:52:23.230Z,9.55
2023-04-29T14:54:49.636Z,7.85
2023-04-29T14:57:16.252Z,7.93
2023-04-29T14:59:42.771Z,5.15
2023-04-29T15:02:09.299Z,6.50
2023-04-29T15:04:35.718Z,8.25
2023-04-29T15:07:02.321Z,6.22
2023-04-29T15:09:28.809Z,5.57
2023-04-29T15:11:55.274Z,4.55
2023-04-29T15:14:21.723Z,6.30
2023-04-29T15:16:49.022Z,7.00
2023-04-29T15:19:15.418Z,3.85
2023-04-29T15:21:41.807Z,6.20
2023-04-29T15:24:08.846Z,5.07
2023-04-29T15:26:35.414Z,3.83
2023-04-29T15:29:02.149Z,4.97
2023-04-29T15:31:29.324Z,3.35
2023-04-29T15:33:57.078Z,5.22
2023-04-29T15:36:28.624Z,5.47
2023-04-29T15:38:54.975Z,4.22
2023-04-29T15:41:21.797Z,5.35
2023-04-29T15:43:48.187Z,5.40
2023-04-29T15:46:14.769Z,3.90
2023-04-29T15:48:41.204Z,4.07
2023-04-29T15:51:09.860Z,4.05
2023-04-29T15:53:36.258Z,4.50
2023-04-29T15:56:02.701Z,5.03
2023-04-29T15:58:29.063Z,6.07
2023-04-29T16:00:55.538Z,4.90
2023-04-29T16:03:21.935Z,8.07
2023-04-29T16:05:49.630Z,5.38
2023-04-29T16:08:16.189Z,4.43
2023-04-29T16:10:42.612Z,5.05
2023-04-29T16:13:09.003Z,4.28
2023-04-29T16:15:35.469Z,4.78
2023-04-29T16:18:02.016Z,6.47
2023-04-29T16:20:28.451Z,5.72
2023-04-29T16:22:54.766Z,7.13
2023-04-29T16:25:21.048Z,5.57
2023-04-29T16:27:47.348Z,5.28
2023-04-29T16:30:13.842Z,8.07
2023-04-29T16:32:42.477Z,6.55
2023-04-29T16:35:10.005Z,4.13
2023-04-29T16:37:36.570Z,4.32
2023-04-29T16:40:03.398Z,5.47
2023-04-29T16:42:29.854Z,5.50
2023-04-29T16:44:56.214Z,6.30
2023-04-29T16:47:23.585Z,3.45
2023-04-29T16:49:50.549Z,3.60
2023-04-29T16:52:17.686Z,5.90
2023-04-29T16:54:44.015Z,6.50
2023-04-29T16:57:10.649Z,6.00
2023-04-29T16:59:36.974Z,6.13
2023-04-29T17:02:04.008Z,5.20
2023-04-29T17:04:31.182Z,4.03
2023-04-29T17:06:57.563Z,3.47
2023-04-29T17:09:25.912Z,3.03
2023-04-29T17:11:52.673Z,3.13
2023-04-29T17:14:19.080Z,2.50
2023-04-29T17:16:45.425Z,3.38
2023-04-29T17:19:11.751Z,4.03
2023-04-29T17:21:38.509Z,2.78
2023-04-29T17:24:04.941Z,3.00
2023-04-29T17:26:31.564Z,3.17
2023-04-29T17:28:58.916Z,4.10
2023-04-29T17:31:30.824Z,4.45
2023-04-29T17:36:32.937Z,4.68
2023-04-29T17:38:59.705Z,4.18
2023-04-29T17:41:26.016Z,3.58
2023-04-29T17:43:52.752Z,4.35
2023-04-29T17:46:19.287Z,3.58
2023-04-29T17:48:45.755Z,3.72
2023-04-29T17:51:12.148Z,2.67
2023-04-29T17:53:38.592Z,3.55
2023-04-29T17:56:05.266Z,3.75
2023-04-29T17:58:31.637Z,4.78
2023-04-29T18:00:59.303Z,4.40
2023-04-29T18:03:27.312Z,6.60
2023-04-29T18:05:53.871Z,5.75
2023-04-29T18:08:20.368Z,4.28
2023-04-29T18:10:46.801Z,4.50
2023-04-29T18:13:13.111Z,3.47
2023-04-29T18:15:39.610Z,3.45
2023-04-29T18:18:06.048Z,3.63
2023-04-29T18:20:32.423Z,4.05
2023-04-29T18:22:58.861Z,4.97
2023-04-29T18:25:25.270Z,4.55
2023-04-29T18:27:54.404Z,5.80
2023-04-29T18:30:26.973Z,3.75
2023-04-29T18:32:53.301Z,5.40
2023-04-29T18:35:19.762Z,5.40
2023-04-29T18:37:46.118Z,7.18
2023-04-29T18:40:12.599Z,7.72
2023-04-29T18:42:39.212Z,6.60
2023-04-29T18:45:06.297Z,6.43
2023-04-29T18:47:32.925Z,5.50
2023-04-29T18:49:59.298Z,6.05
2023-04-29T18:52:25.662Z,4.85
2023-04-29T18:54:52.036Z,6.00
2023-04-29T18:57:18.405Z,4.57
2023-04-29T18:59:44.794Z,4.63
2023-04-29T19:02:11.104Z,5.05
2023-04-29T19:04:37.556Z,4.88
2023-04-29T19:07:06.144Z,3.70
2023-04-29T19:09:32.590Z,7.55
2023-04-29T19:12:03.584Z,5.47
2023-04-29T19:14:30.402Z,4.32
2023-04-29T19:16:56.738Z,3.05
2023-04-29T19:19:23.194Z,3.05
2023-04-29T19:21:49.621Z,3.63
2023-04-29T19:24:16.052Z,4.10
2023-04-29T19:26:42.566Z,3.47
2023-04-29T19:29:09.008Z,3.13
2023-04-29T19:31:37.035Z,3.55
2023-04-29T19:34:03.827Z,2.10
2023-04-29T19:36:30.208Z,3.88
2023-04-29T19:38:57.098Z,3.00
2023-04-29T19:41:24.004Z,2.85
2023-04-29T19:43:50.779Z,1.95
2023-04-29T19:46:17.142Z,2.40
2023-04-29T19:48:44.044Z,1.50
2023-04-29T19:51:10.390Z,1.23
2023-04-29T19:53:36.993Z,1.52
2023-04-29T19:56:03.444Z,2.40
2023-04-29T19:58:29.878Z,2.20
2023-04-29T20:00:56.354Z,2.90
2023-04-29T20:03:22.902Z,1.63
2023-04-29T20:05:49.285Z,1.40
2023-04-29T20:08:15.630Z,1.25
2023-04-29T20:10:42.056Z,1.40
2023-04-29T20:13:08.464Z,1.42
2023-04-29T20:15:35.016Z,1.15
2023-04-29T20:18:01.523Z,0.98
2023-04-29T20:20:28.015Z,1.00
2023-04-29T20:22:58.072Z,1.50
2023-04-29T20:25:25.648Z,1.10
2023-04-29T20:27:53.620Z,0.77
2023-04-29T20:30:20.327Z,0.80
2023-04-29T20:32:47.184Z,0.77
2023-04-29T20:35:13.646Z,0.80
2023-04-29T20:37:40.112Z,0.93
2023-04-29T20:40:07.856Z,1.77
2023-04-29T20:42:34.164Z,1.05
2023-04-29T20:45:00.586Z,1.00
2023-04-29T20:47:27.747Z,1.10
2023-04-29T20:49:54.285Z,0.70
2023-04-29T20:52:21.376Z,0.57
2023-04-29T20:54:47.910Z,0.68
2023-04-29T20:57:14.258Z,1.10
2023-04-29T20:59:40.786Z,0.60
2023-04-29T21:02:07.160Z,0.93
2023-04-29T21:04:33.584Z,0.93
2023-04-29T21:07:02.670Z,0.60
2023-04-29T21:09:29.085Z,0.60
2023-04-29T21:11:57.928Z,0.43
2023-04-29T21:14:24.283Z,0.88
2023-04-29T21:16:50.577Z,1.05
2023-04-29T21:19:16.890Z,0.73
2023-04-29T21:21:43.820Z,0.77
2023-04-29T21:24:10.331Z,0.80
2023-04-29T21:26:36.799Z,0.85
2023-04-29T21:29:03.668Z,1.58
2023-04-29T21:31:30.441Z,0.90
2023-04-29T21:33:56.835Z,1.50
2023-04-29T21:36:23.220Z,1.23
2023-04-29T21:38:49.609Z,1.20
2023-04-29T21:41:22.904Z,1.30
2023-04-29T21:43:49.859Z,1.05
2023-04-29T21:46:16.623Z,1.85
2023-04-29T21:48:43.213Z,1.50
2023-04-29T21:51:09.641Z,1.40
2023-04-29T21:53:37.227Z,1.10
2023-04-29T21:56:04.957Z,2.13
2023-04-29T21:58:31.957Z,1.42
2023-04-29T22:01:01.336Z,0.80
2023-04-29T22:03:28.078Z,0.95
2023-04-29T22:05:54.479Z,0.52
2023-04-29T22:08:20.951Z,0.80
2023-04-29T22:10:47.386Z,1.50
2023-04-29T22:13:13.742Z,0.90
2023-04-29T22:15:40.217Z,1.48
2023-04-29T22:18:06.844Z,1.23
2023-04-29T22:20:33.417Z,1.20
2023-04-29T22:22:59.796Z,0.82
2023-04-29T22:25:26.332Z,1.25
2023-04-29T22:27:52.693Z,0.77
2023-04-29T22:30:19.783Z,1.00
2023-04-29T22:32:46.312Z,1.30
2023-04-29T22:35:12.680Z,0.73
2023-04-29T22:37:38.979Z,1.00
2023-04-29T22:40:05.622Z,0.60
2023-04-29T22:42:31.984Z,0.80
2023-04-29T22:44:58.398Z,1.08
2023-04-29T22:47:24.807Z,1.67
2023-04-29T22:49:51.170Z,1.30
2023-04-29T22:52:17.489Z,1.17
2023-04-29T22:54:43.826Z,1.75
2023-04-29T22:57:10.339Z,1.50
2023-04-29T22:59:36.745Z,1.60
2023-04-29T23:02:03.104Z,1.48
2023-04-29T23:04:30.844Z,1.50
2023-04-29T23:06:57.422Z,2.03
2023-04-29T23:09:23.789Z,2.13
2023-04-29T23:11:50.165Z,1.83
2023-04-29T23:14:16.640Z,1.80
2023-04-29T23:16:42.996Z,2.13
2023-04-29T23:19:09.397Z,1.40
2023-04-29T23:21:35.811Z,1.27
2023-04-29T23:24:02.201Z,2.00
2023-04-29T23:26:28.566Z,2.55
2023-04-29T23:28:54.989Z,1.25
2023-04-29T23:31:21.351Z,2.17
2023-04-29T23:33:48.844Z,1.90
2023-04-29T23:36:15.472Z,1.55
2023-04-29T23:38:41.916Z,2.17
2023-04-29T23:41:08.285Z,1.33
2023-04-29T23:43:34.622Z,1.73
2023-04-29T23:46:01.122Z,2.13
2023-04-29T23:48:27.646Z,1.83
2023-04-29T23:50:54.001Z,2.05
2023-04-29T23:53:20.395Z,2.55
2023-04-29T23:55:46.831Z,2.78
2023-04-29T23:58:13.330Z,3.63
